Time;durP1;ratioP1;P1;durP2;ratioP2;P2;SDS_P1;SDS_P2;PMS_P1;PMS_P2;Temp;Humidity;BMP_temperature;BMP_pressure;BME280_temperature;BME280_humidity;BME280_pressure;Samples;Min_cycle;Max_cycle;Signal;HPM_P1;HPM_P2
2023/04/26 00:08:26;;;;;;;0.70;0.40;;;;;;;;;;20890038;28;20235;-79
2023/04/26 00:18:28;;;;;;;2.50;0.73;;;;;;;;;;20895326;28;20252;-80
2023/04/26 00:28:30;;;;;;;1.83;0.63;;;;;;;;;;20896367;28;20734;-80
2023/04/26 00:38:31;;;;;;;1.83;0.73;;;;;;;;;;20898401;28;20210;-81
2023/04/26 00:48:34;;;;;;;0.80;0.50;;;;;;;;;;20894574;28;20233;-79
2023/04/26 00:58:36;;;;;;;0.67;0.50;;;9.00;99.90;;;;;;20915031;28;20213;-79
2023/04/26 01:08:40;;;;;;;0.73;0.50;;;;;;;;;;20920655;28;20238;-79
2023/04/26 01:18:42;;;;;;;0.83;0.47;;;;;;;;;;20913141;28;20716;-80
2023/04/26 01:28:48;;;;;;;1.00;0.60;;;;;;;;;;20936661;28;20221;-80
2023/04/26 01:38:50;;;;;;;0.60;0.40;;;;;;;;;;20922682;28;20213;-79
2023/04/26 01:48:51;;;;;;;0.63;0.57;;;;;;;;;;20906796;28;20226;-80
2023/04/26 01:58:55;;;;;;;0.40;0.30;;;;;;;;;;20890193;28;20218;-80
2023/04/26 02:08:58;;;;;;;1.40;0.77;;;;;;;;;;20905883;28;20271;-80
2023/04/26 02:18:59;;;;;;;0.70;0.40;;;;;;;;;;20889882;28;20256;-79
2023/04/26 02:29:01;;;;;;;0.70;0.43;;;;;;;;;;20871546;28;20295;-79
2023/04/26 02:39:04;;;;;;;0.70;0.50;;;;;;;;;;20907204;28;20252;-79
2023/04/26 02:49:06;;;;;;;1.13;0.60;;;;;;;;;;20888093;28;20268;-79
2023/04/26 02:59:08;;;;;;;0.80;0.63;;;;;;;;;;20919995;28;20279;-79
2023/04/26 03:09:10;;;;;;;1.07;0.70;;;;;;;;;;20920993;28;20765;-80
2023/04/26 03:19:12;;;;;;;3.03;0.80;;;;;;;;;;20902967;28;20222;-80
2023/04/26 03:29:15;;;;;;;1.27;0.70;;;;;;;;;;20918407;28;20260;-78
2023/04/26 03:39:17;;;;;;;1.13;0.60;;;;;;;;;;20915766;28;20218;-79
2023/04/26 03:49:19;;;;;;;0.77;0.50;;;;;;;;;;20912892;28;20287;-78
2023/04/26 03:59:21;;;;;;;1.00;0.47;;;;;;;;;;20912582;28;20773;-78
2023/04/26 04:09:24;;;;;;;2.40;1.07;;;;;;;;;;20912365;28;20295;-79
2023/04/26 04:19:25;;;;;;;1.47;0.80;;;;;;;;;;20908166;28;20225;-81
2023/04/26 04:29:27;;;;;;;0.80;0.50;;;;;;;;;;20863627;28;20226;-79
2023/04/26 04:39:29;;;;;;;0.87;0.70;;;;;;;;;;20882695;28;20222;-79
2023/04/26 04:49:31;;;;;;;7.30;1.37;;;;;;;;;;20795663;28;20223;-79
2023/04/26 04:59:33;;;;;;;0.73;0.63;;;;;;;;;;20844310;28;20211;-79
2023/04/26 05:09:36;;;;;;;0.90;0.73;;;;;;;;;;20826998;28;20299;-82
2023/04/26 05:19:38;;;;;;;1.17;0.70;;;;;;;;;;20809699;28;20230;-79
2023/04/26 05:29:40;;;;;;;6.80;1.13;;;;;;;;;;20825731;28;20600;-79
2023/04/26 05:40:04;;;;;;;1.27;0.80;;;;;;;;;;20900533;28;20299;-78
2023/04/26 05:50:07;;;;;;;1.87;0.90;;;;;;;;;;20818705;28;20246;-79
2023/04/26 06:00:09;;;;;;;1.97;0.83;;;;;;;;;;20806441;28;20210;-78
2023/04/26 06:10:15;;;;;;;1.50;0.77;;;;;;;;;;20825998;28;20288;-77
2023/04/26 06:20:17;;;;;;;3.00;0.97;;;;;;;;;;20823194;28;20226;-78
2023/04/26 06:30:19;;;;;;;0.77;0.63;;;;;;;;;;20839043;28;20238;-78
2023/04/26 06:40:22;;;;;;;1.40;0.70;;;;;;;;;;20838536;28;20841;-78
2023/04/26 06:50:24;;;;;;;5.90;1.30;;;;;;;;;;20837212;28;20288;-78
2023/04/26 07:00:27;;;;;;;1.13;0.60;;;;;;;;;;20837749;28;20249;-79
2023/04/26 07:10:28;;;;;;;0.90;0.50;;;;;;;;;;20837214;28;20285;-79
2023/04/26 07:20:30;;;;;;;2.10;0.93;;;;;;;;;;20844764;28;20226;-78
2023/04/26 07:30:32;;;;;;;1.60;0.70;;;;;;;;;;20835386;28;20268;-79
2023/04/26 07:40:33;;;;;;;1.47;0.87;;;;;;;;;;20901968;28;20259;-78
2023/04/26 07:50:35;;;;;;;1.70;0.90;;;;;;;;;;20914722;28;20233;-78
2023/04/26 08:00:37;;;;;;;2.60;1.20;;;;;;;;;;20914299;28;20717;-78
2023/04/26 08:10:40;;;;;;;2.27;0.73;;;10.10;99.90;;;;;;20844273;28;20230;-79
2023/04/26 08:20:42;;;;;;;3.13;0.83;;;;;;;;;;20829008;28;20287;-80
2023/04/26 08:30:44;;;;;;;1.13;0.80;;;;;;;;;;20830951;28;20239;-79
2023/04/26 08:40:46;;;;;;;1.23;0.87;;;;;;;;;;20829215;28;20241;-79
2023/04/26 08:50:48;;;;;;;2.73;1.20;;;;;;;;;;20832310;28;20238;-80
2023/04/26 09:00:51;;;;;;;2.37;1.10;;;;;;;;;;20836637;28;20218;-79
2023/04/26 09:10:53;;;;;;;1.10;0.80;;;;;;;;;;20826233;28;20280;-79
2023/04/26 09:21:05;;;;;;;1.03;0.80;;;12.50;99.90;;;;;;20864421;28;20234;-80
2023/04/26 09:31:07;;;;;;;1.83;0.77;;;;;;;;;;20906267;28;20229;-79
2023/04/26 09:41:10;;;;;;;2.20;1.10;;;;;;;;;;20905381;28;20240;-79
2023/04/26 09:51:13;;;;;;;1.60;0.93;;;;;;;;;;20905200;28;20597;-78
2023/04/26 10:01:16;;;;;;;1.50;0.83;;;;;;;;;;20905143;28;20933;-79
2023/04/26 10:11:18;;;;;;;2.40;0.83;;;;;;;;;;20906861;28;20699;-78
2023/04/26 10:21:26;;;;;;;2.40;0.70;;;12.80;99.90;;;;;;20906361;28;20229;-78
2023/04/26 10:31:48;;;;;;;2.20;0.80;;;;;;;;;;20915402;28;20233;-78
2023/04/26 10:41:49;;;;;;;1.43;0.63;;;;;;;;;;20906503;28;20205;-78
2023/04/26 10:52:10;;;;;;;1.00;0.70;;;13.10;99.90;;;;;;20904055;28;20206;-79
2023/04/26 11:02:12;;;;;;;2.07;0.77;;;;;;;;;;20915994;28;20218;-78
2023/04/26 11:12:15;;;;;;;0.70;0.60;;;;;;;;;;20918227;28;20221;-78
2023/04/26 11:22:21;;;;;;;3.03;1.13;;;;;;;;;;20917615;28;20248;-80
2023/04/26 11:32:23;;;;;;;3.70;0.80;;;;;;;;;;20914304;28;20614;-79
2023/04/26 11:42:25;;;;;;;0.77;0.53;;;;;;;;;;20908579;28;20226;-79
2023/04/26 11:52:27;;;;;;;0.93;0.60;;;;;;;;;;20912880;28;20218;-81
2023/04/26 12:02:29;;;;;;;2.20;0.80;;;;;;;;;;20913235;28;20292;-81
2023/04/26 12:12:31;;;;;;;2.20;0.90;;;;;;;;;;20936119;28;20578;-80
2023/04/26 12:22:33;;;;;;;4.03;1.03;;;;;;;;;;20913293;28;20229;-80
2023/04/26 12:32:35;;;;;;;1.17;0.60;;;;;;;;;;20979275;28;20720;-80
2023/04/26 12:42:37;;;;;;;3.03;1.10;;;;;;;;;;20909775;28;20238;-81
2023/04/26 12:52:39;;;;;;;2.67;0.90;;;;;;;;;;20908467;28;20198;-80
2023/04/26 13:02:40;;;;;;;1.37;0.80;;;15.70;99.90;;;;;;20908275;28;20618;-81
2023/04/26 13:12:42;;;;;;;2.20;0.80;;;;;;;;;;20907073;28;20762;-81
2023/04/26 13:22:44;;;;;;;3.60;1.17;;;;;;;;;;20906365;28;20237;-81
2023/04/26 13:32:46;;;;;;;0.97;0.60;;;;;;;;;;20906193;28;20279;-81
2023/04/26 13:42:48;;;;;;;1.77;0.80;;;;;;;;;;20886554;28;20647;-81
2023/04/26 13:52:51;;;;;;;3.13;0.90;;;;;;;;;;20928564;28;20226;-80
2023/04/26 14:02:53;;;;;;;1.23;0.50;;;;;;;;;;20905686;28;20637;-80
2023/04/26 14:12:55;;;;;;;2.43;0.80;;;;;;;;;;20912070;28;20275;-81
2023/04/26 14:22:57;;;;;;;2.37;0.90;;;;;;;;;;20927942;28;20268;-80
2023/04/26 14:32:58;;;;;;;1.93;0.70;;;;;;;;;;20910209;28;20206;-80
2023/04/26 14:43:00;;;;;;;2.37;0.70;;;;;;;;;;20918587;28;20233;-80
2023/04/26 14:53:01;;;;;;;1.33;0.60;;;;;;;;;;20917697;28;20221;-80
2023/04/26 15:03:03;;;;;;;1.60;0.70;;;;;;;;;;20921416;28;20263;-81
2023/04/26 15:13:05;;;;;;;2.83;1.20;;;;;;;;;;20916566;28;20299;-80
2023/04/26 15:23:07;;;;;;;2.87;0.87;;;;;;;;;;20928191;28;20264;-81
2023/04/26 15:33:11;;;;;;;3.03;1.00;;;;;;;;;;20924805;28;20222;-81
2023/04/26 15:43:13;;;;;;;2.53;0.90;;;;;;;;;;20912521;28;20348;-81
2023/04/26 15:53:14;;;;;;;1.53;0.60;;;;;;;;;;20910791;28;20251;-81
2023/04/26 16:03:16;;;;;;;1.80;0.90;;;;;;;;;;20917730;28;20268;-80
2023/04/26 16:13:18;;;;;;;1.57;0.60;;;;;;;;;;20912764;28;20237;-81
2023/04/26 16:23:20;;;;;;;1.80;0.83;;;;;;;;;;20914116;28;20238;-81
2023/04/26 16:33:22;;;;;;;0.93;0.70;;;;;;;;;;20913734;28;20271;-81
2023/04/26 16:43:30;;;;;;;1.63;0.70;;;15.70;99.90;;;;;;20898151;28;20655;-81
2023/04/26 16:53:34;;;;;;;2.37;1.00;;;15.60;99.90;;;;;;20884164;28;20307;-80
2023/04/26 17:03:36;;;;;;;1.67;0.73;;;;;;;;;;20944324;28;20363;-80
2023/04/26 17:13:37;;;;;;;1.73;0.70;;;;;;;;;;20894515;28;20279;-80
2023/04/26 17:23:39;;;;;;;1.47;0.80;;;;;;;;;;20930526;28;20291;-81
2023/04/26 17:33:42;;;;;;;2.50;0.80;;;;;;;;;;20910604;28;20274;-80
2023/04/26 17:43:44;;;;;;;1.50;0.70;;;14.90;99.90;;;;;;20911490;28;20256;-80
2023/04/26 17:53:45;;;;;;;1.80;0.90;;;;;;;;;;20915815;28;20541;-80
2023/04/26 18:03:47;;;;;;;1.30;0.67;;;;;;;;;;20924471;28;20248;-80
2023/04/26 18:13:49;;;;;;;3.53;1.20;;;;;;;;;;20951180;28;20221;-80
2023/04/26 18:23:51;;;;;;;1.27;0.83;;;;;;;;;;20965748;28;20758;-81
2023/04/26 18:33:53;;;;;;;1.20;0.73;;;;;;;;;;20845315;28;20350;-80
2023/04/26 18:43:55;;;;;;;1.80;0.70;;;;;;;;;;20915305;28;20230;-79
2023/04/26 18:53:56;;;;;;;2.00;0.70;;;;;;;;;;20914155;28;20206;-80
2023/04/26 19:03:58;;;;;;;4.47;0.80;;;;;;;;;;20908958;28;20237;-79
2023/04/26 19:14:00;;;;;;;1.10;0.67;;;;;;;;;;20911090;28;20245;-80
2023/04/26 19:24:03;;;;;;;1.07;0.60;;;;;;;;;;20913037;28;20699;-80
2023/04/26 19:34:04;;;;;;;1.60;0.87;;;;;;;;;;20839915;28;20222;-78
2023/04/26 19:44:06;;;;;;;2.17;0.93;;;;;;;;;;20840839;28;20226;-82
2023/04/26 19:54:08;;;;;;;1.47;0.87;;;;;;;;;;20842287;28;20222;-82
2023/04/26 20:04:10;;;;;;;2.57;1.10;;;;;;;;;;20845803;28;20253;-81
2023/04/26 20:14:12;;;;;;;1.03;0.70;;;;;;;;;;20861626;28;20234;-81
2023/04/26 20:24:15;;;;;;;1.70;0.93;;;;;;;;;;20854985;28;20253;-80
2023/04/26 20:34:16;;;;;;;1.83;0.90;;;;;;;;;;20826101;28;20227;-80
2023/04/26 20:44:18;;;;;;;2.00;0.90;;;;;;;;;;20824661;28;20234;-80
2023/04/26 20:54:20;;;;;;;3.73;0.80;;;;;;;;;;20829062;28;20241;-80
2023/04/26 21:04:22;;;;;;;1.30;0.70;;;;;;;;;;20841557;28;20321;-80
2023/04/26 21:14:24;;;;;;;1.13;0.93;;;;;;;;;;20834783;28;20234;-80
2023/04/26 21:24:26;;;;;;;5.23;0.80;;;;;;;;;;20854756;28;20217;-80
2023/04/26 21:34:27;;;;;;;1.07;0.90;;;;;;;;;;20911280;28;20213;-79
2023/04/26 21:44:29;;;;;;;1.57;0.83;;;;;;;;;;20908132;28;20242;-80
2023/04/26 21:54:31;;;;;;;1.70;0.80;;;;;;;;;;20911632;28;20217;-80
2023/04/26 22:04:32;;;;;;;2.90;0.93;;;;;;;;;;20910840;28;20630;-79
2023/04/26 22:14:34;;;;;;;2.50;0.83;;;;;;;;;;20906374;28;20230;-81
2023/04/26 22:24:36;;;;;;;1.23;0.70;;;;;;;;;;20906749;28;20287;-81
2023/04/26 22:34:38;;;;;;;0.97;0.73;;;;;;;;;;20905359;28;20214;-82
2023/04/26 22:44:40;;;;;;;1.53;0.77;;;;;;;;;;20888747;28;20252;-81
2023/04/26 22:54:42;;;;;;;1.00;0.70;;;;;;;;;;20910773;28;20214;-81
2023/04/26 23:04:45;;;;;;;1.43;0.50;;;;;;;;;;20921189;28;20234;-81
2023/04/26 23:14:47;;;;;;;0.83;0.50;;;;;;;;;;20922943;28;20210;-81
2023/04/26 23:24:49;;;;;;;0.87;0.57;;;;;;;;;;20911059;28;20233;-80
2023/04/26 23:34:51;;;;;;;1.13;0.57;;;;;;;;;;20973493;28;20221;-80
2023/04/26 23:44:52;;;;;;;1.67;0.67;;;;;;;;;;20929024;28;20225;-81
2023/04/26 23:54:54;;;;;;;0.97;0.60;;;;;;;;;;20917732;28;20256;-80
